createdAt,value
2023-05-14T00:00:04.917Z,0.00
2023-05-14T00:01:04.852Z,0.00
2023-05-14T00:02:04.949Z,0.00
2023-05-14T00:03:04.983Z,0.00
2023-05-14T00:04:04.922Z,0.00
2023-05-14T00:05:04.863Z,0.00
2023-05-14T00:06:04.830Z,0.00
2023-05-14T00:07:04.824Z,0.00
2023-05-14T00:08:04.829Z,0.00
2023-05-14T00:09:04.823Z,0.00
2023-05-14T00:10:04.772Z,0.00
2023-05-14T00:11:04.723Z,0.00
2023-05-14T00:12:04.842Z,0.00
2023-05-14T00:13:04.813Z,0.00
2023-05-14T00:14:04.700Z,0.00
2023-05-14T00:15:04.660Z,0.00
2023-05-14T00:16:04.735Z,0.00
2023-05-14T00:17:04.620Z,0.00
2023-05-14T00:18:04.798Z,0.00
2023-05-14T00:19:04.620Z,0.00
2023-05-14T00:20:05.412Z,0.00
2023-05-14T00:21:04.585Z,0.00
2023-05-14T00:22:04.766Z,0.00
2023-05-14T00:23:04.643Z,0.00
2023-05-14T00:24:04.674Z,0.00
2023-05-14T00:25:04.557Z,0.00
2023-05-14T00:26:04.626Z,0.00
2023-05-14T00:27:04.533Z,0.00
2023-05-14T00:28:04.505Z,0.00
2023-05-14T00:29:04.518Z,0.00
2023-05-14T00:30:04.453Z,0.00
2023-05-14T00:31:04.552Z,0.00
2023-05-14T00:32:04.462Z,0.00
2023-05-14T00:33:04.441Z,0.00
2023-05-14T00:34:04.555Z,0.00
2023-05-14T00:35:04.486Z,0.00
2023-05-14T00:36:04.446Z,0.00
2023-05-14T00:37:04.370Z,0.00
2023-05-14T00:38:04.431Z,0.00
2023-05-14T00:39:04.337Z,0.00
2023-05-14T00:40:04.712Z,0.00
2023-05-14T00:41:04.419Z,0.00
2023-05-14T00:42:04.326Z,0.00
2023-05-14T00:43:04.336Z,0.00
2023-05-14T00:44:04.271Z,0.00
2023-05-14T00:45:04.315Z,0.00
2023-05-14T00:46:04.266Z,0.00
2023-05-14T00:47:04.331Z,0.00
2023-05-14T00:48:04.307Z,0.00
2023-05-14T00:49:04.231Z,0.00
2023-05-14T00:50:04.253Z,0.00
2023-05-14T00:51:04.197Z,0.00
2023-05-14T00:52:04.425Z,0.00
2023-05-14T00:53:04.275Z,0.00
2023-05-14T00:54:04.141Z,0.00
2023-05-14T00:55:04.155Z,0.00
2023-05-14T00:56:04.149Z,0.00
2023-05-14T00:57:04.292Z,0.00
2023-05-14T00:58:04.119Z,0.00
2023-05-14T00:59:04.072Z,0.00
2023-05-14T01:00:04.314Z,0.00
2023-05-14T01:01:04.148Z,0.00
2023-05-14T01:02:04.121Z,0.00
2023-05-14T01:03:04.160Z,0.00
2023-05-14T01:04:04.166Z,0.00
2023-05-14T01:05:03.978Z,0.00
2023-05-14T01:06:04.024Z,0.00
2023-05-14T01:07:03.995Z,0.00
2023-05-14T01:08:04.205Z,0.00
2023-05-14T01:09:04.810Z,0.00
2023-05-14T01:10:03.988Z,0.00
2023-05-14T01:11:03.934Z,0.00
2023-05-14T01:12:03.916Z,0.00
2023-05-14T01:13:03.858Z,0.00
2023-05-14T01:14:03.898Z,0.00
2023-05-14T01:15:03.888Z,0.00
2023-05-14T01:16:03.892Z,0.00
2023-05-14T01:17:03.839Z,0.00
2023-05-14T01:18:03.953Z,0.00
2023-05-14T01:19:03.881Z,0.00
2023-05-14T01:20:03.998Z,0.00
2023-05-14T01:21:03.785Z,0.00
2023-05-14T01:22:03.848Z,0.00
2023-05-14T01:23:03.752Z,0.00
2023-05-14T01:24:03.898Z,0.00
2023-05-14T01:25:03.863Z,0.00
2023-05-14T01:26:04.485Z,0.00
2023-05-14T01:27:03.672Z,0.00
2023-05-14T01:28:03.733Z,0.00
2023-05-14T01:29:03.662Z,0.00
2023-05-14T01:30:03.613Z,0.00
2023-05-14T01:31:03.768Z,0.00
2023-05-14T01:32:04.393Z,0.00
2023-05-14T01:33:03.652Z,0.00
2023-05-14T01:34:03.757Z,0.00
2023-05-14T01:35:04.067Z,0.00
2023-05-14T01:36:05.154Z,0.00
2023-05-14T01:37:04.611Z,0.00
2023-05-14T01:38:03.592Z,0.00
2023-05-14T01:39:03.674Z,0.00
2023-05-14T01:40:03.514Z,0.00
2023-05-14T01:41:03.566Z,0.00
2023-05-14T01:42:03.503Z,0.00
2023-05-14T01:43:04.449Z,0.00
2023-05-14T01:44:03.458Z,0.00
2023-05-14T01:45:03.427Z,0.00
2023-05-14T01:46:03.450Z,0.00
2023-05-14T01:47:03.604Z,0.00
2023-05-14T01:48:03.605Z,0.00
2023-05-14T01:49:03.380Z,0.00
2023-05-14T01:50:03.438Z,0.00
2023-05-14T01:51:03.494Z,0.00
2023-05-14T01:52:03.374Z,0.00
2023-05-14T01:53:03.796Z,0.00
2023-05-14T01:54:03.432Z,0.00
2023-05-14T01:55:03.294Z,0.00
2023-05-14T01:56:03.261Z,0.00
2023-05-14T01:57:03.258Z,0.00
2023-05-14T01:58:03.312Z,0.00
2023-05-14T01:59:03.305Z,0.00
2023-05-14T02:00:03.281Z,0.00
2023-05-14T02:01:03.260Z,0.00
2023-05-14T02:02:03.270Z,0.00
2023-05-14T02:03:03.226Z,0.00
2023-05-14T02:04:03.263Z,0.00
2023-05-14T02:05:07.015Z,0.00
2023-05-14T02:06:03.133Z,0.00
2023-05-14T02:07:03.136Z,0.00
2023-05-14T02:08:03.187Z,0.00
2023-05-14T02:09:03.076Z,0.00
2023-05-14T02:10:03.135Z,0.00
2023-05-14T02:11:03.800Z,0.00
2023-05-14T02:12:03.209Z,0.00
2023-05-14T02:13:03.033Z,0.00
2023-05-14T02:14:03.141Z,0.00
2023-05-14T02:15:03.244Z,0.00
2023-05-14T02:16:03.048Z,0.00
2023-05-14T02:17:03.040Z,0.00
2023-05-14T02:18:03.068Z,0.00
2023-05-14T02:19:03.014Z,0.00
2023-05-14T02:20:02.978Z,0.00
2023-05-14T02:21:02.987Z,0.00
2023-05-14T02:22:02.989Z,0.00
2023-05-14T02:23:03.011Z,0.00
2023-05-14T02:24:02.948Z,0.00
2023-05-14T02:25:03.026Z,0.00
2023-05-14T02:26:02.891Z,0.00
2023-05-14T02:27:02.936Z,0.00
2023-05-14T02:28:02.892Z,0.00
2023-05-14T02:29:03.066Z,0.00
2023-05-14T02:30:02.900Z,0.00
2023-05-14T02:31:02.979Z,0.00
2023-05-14T02:32:02.814Z,0.00
2023-05-14T02:33:02.875Z,0.00
2023-05-14T02:34:02.772Z,0.00
2023-05-14T02:35:02.819Z,0.00
2023-05-14T02:36:02.787Z,0.00
2023-05-14T02:37:02.745Z,0.00
2023-05-14T02:38:02.832Z,0.00
2023-05-14T02:39:02.734Z,0.00
2023-05-14T02:40:02.691Z,0.00
2023-05-14T02:41:02.683Z,0.00
2023-05-14T02:42:02.748Z,0.00
2023-05-14T02:43:02.662Z,0.00
2023-05-14T02:44:02.722Z,0.00
2023-05-14T02:45:02.591Z,0.00
2023-05-14T02:46:02.660Z,0.00
2023-05-14T02:47:02.686Z,0.00
2023-05-14T02:48:02.624Z,0.00
2023-05-14T02:49:02.577Z,0.00
2023-05-14T02:50:02.585Z,0.00
2023-05-14T02:51:02.522Z,0.00
2023-05-14T02:52:02.534Z,0.00
2023-05-14T02:53:02.490Z,0.00
2023-05-14T02:54:02.462Z,0.00
2023-05-14T02:55:02.462Z,0.00
2023-05-14T02:56:02.417Z,0.00
2023-05-14T02:57:02.440Z,0.00
2023-05-14T02:58:02.496Z,0.00
2023-05-14T02:59:02.416Z,0.00
2023-05-14T03:00:02.376Z,0.00
2023-05-14T03:01:02.463Z,0.00
2023-05-14T03:02:02.502Z,0.00
2023-05-14T03:03:02.399Z,0.00
2023-05-14T03:04:02.341Z,0.00
2023-05-14T03:05:02.350Z,0.00
2023-05-14T03:06:02.362Z,0.00
2023-05-14T03:07:03.210Z,0.00
2023-05-14T03:08:02.288Z,0.00
2023-05-14T03:09:02.269Z,5.62
2023-05-14T03:10:02.302Z,5.62
2023-05-14T03:11:02.218Z,5.62
2023-05-14T03:12:02.202Z,5.62
2023-05-14T03:13:02.239Z,5.62
2023-05-14T03:14:02.228Z,5.62
2023-05-14T03:15:02.298Z,5.62
2023-05-14T03:16:02.177Z,5.62
2023-05-14T03:17:02.243Z,11.25
2023-05-14T03:18:02.303Z,11.25
2023-05-14T03:19:02.149Z,11.25
2023-05-14T03:20:02.173Z,11.25
2023-05-14T03:21:02.093Z,11.25
2023-05-14T03:22:02.096Z,16.88
2023-05-14T03:23:02.065Z,16.88
2023-05-14T03:24:02.033Z,16.88
2023-05-14T03:25:02.099Z,16.88
2023-05-14T03:26:02.266Z,16.88
2023-05-14T03:27:02.037Z,22.50
2023-05-14T03:28:02.010Z,22.50
2023-05-14T03:29:01.968Z,22.50
2023-05-14T03:30:02.743Z,22.50
2023-05-14T03:31:03.421Z,28.12
2023-05-14T03:32:03.971Z,28.12
2023-05-14T03:33:02.223Z,28.12
2023-05-14T03:34:03.931Z,33.75
2023-05-14T03:35:02.004Z,33.75
2023-05-14T03:36:02.200Z,33.75
2023-05-14T03:37:01.950Z,39.38
2023-05-14T03:38:02.076Z,39.38
2023-05-14T03:39:01.827Z,39.38
2023-05-14T03:40:01.815Z,45.00
2023-05-14T03:41:01.814Z,45.00
2023-05-14T03:42:02.058Z,45.00
2023-05-14T03:43:02.154Z,50.62
2023-05-14T03:44:01.814Z,50.62
2023-05-14T03:45:01.916Z,50.62
2023-05-14T03:46:01.848Z,56.25
2023-05-14T03:47:01.982Z,56.25
2023-05-14T03:48:03.715Z,61.88
2023-05-14T03:49:02.126Z,61.88
2023-05-14T03:50:01.881Z,67.50
2023-05-14T03:51:02.221Z,67.50
2023-05-14T03:52:03.619Z,67.50
2023-05-14T03:53:02.721Z,73.12
2023-05-14T03:54:01.859Z,73.12
2023-05-14T03:55:01.682Z,78.75
2023-05-14T03:56:02.470Z,78.75
2023-05-14T03:57:01.609Z,78.75
2023-05-14T03:58:02.634Z,84.38
2023-05-14T03:59:24.639Z,84.38
2023-05-14T04:00:01.903Z,90.00
2023-05-14T04:01:01.728Z,90.00
2023-05-14T04:02:03.882Z,90.00
2023-05-14T04:03:02.897Z,95.62
2023-05-14T04:04:02.655Z,95.62
2023-05-14T04:05:01.447Z,101.25
2023-05-14T04:06:02.192Z,101.25
2023-05-14T04:07:01.528Z,101.25
2023-05-14T04:08:01.435Z,106.88
2023-05-14T04:09:01.421Z,106.88
2023-05-14T04:10:04.200Z,112.50
2023-05-14T04:11:01.410Z,112.50
2023-05-14T04:12:01.388Z,118.12
2023-05-14T04:13:01.351Z,118.12
2023-05-14T04:14:01.464Z,118.12
2023-05-14T04:15:01.391Z,123.75
2023-05-14T04:16:02.277Z,123.75
2023-05-14T04:17:01.365Z,129.38
2023-05-14T04:18:01.426Z,129.38
2023-05-14T04:19:01.349Z,129.38
2023-05-14T04:20:01.321Z,135.00
2023-05-14T04:21:01.254Z,135.00
2023-05-14T04:22:01.312Z,140.62
2023-05-14T04:23:01.203Z,140.62
2023-05-14T04:24:01.350Z,140.62
2023-05-14T04:25:01.598Z,146.25
2023-05-14T04:26:01.198Z,146.25
2023-05-14T04:27:01.241Z,146.25
2023-05-14T04:28:01.186Z,146.25
2023-05-14T04:29:01.138Z,151.88
2023-05-14T04:30:01.170Z,151.88
2023-05-14T04:31:01.922Z,151.88
2023-05-14T04:32:01.217Z,157.50
2023-05-14T04:33:01.941Z,157.50
2023-05-14T04:34:01.101Z,157.50
2023-05-14T04:35:01.180Z,157.50
2023-05-14T04:36:01.006Z,157.50
2023-05-14T04:37:01.286Z,157.50
2023-05-14T04:38:01.025Z,163.12
2023-05-14T04:39:01.024Z,163.12
2023-05-14T04:40:01.038Z,163.12
2023-05-14T04:41:01.073Z,163.12
2023-05-14T04:42:00.987Z,168.75
2023-05-14T04:43:00.904Z,180.00
2023-05-14T04:44:00.934Z,185.62
2023-05-14T04:45:00.927Z,196.88
2023-05-14T04:46:00.919Z,202.50
2023-05-14T04:47:01.091Z,208.12
2023-05-14T04:48:01.179Z,219.38
2023-05-14T04:49:00.853Z,219.38
2023-05-14T04:50:00.821Z,225.00
2023-05-14T04:51:00.812Z,230.62
2023-05-14T04:52:00.884Z,236.25
2023-05-14T04:53:00.820Z,236.25
2023-05-14T04:54:00.846Z,241.88
2023-05-14T04:55:00.771Z,247.50
2023-05-14T04:56:00.838Z,258.75
2023-05-14T04:57:00.746Z,286.88
2023-05-14T04:58:01.082Z,292.50
2023-05-14T04:59:00.761Z,292.50
2023-05-14T05:00:00.765Z,281.25
2023-05-14T05:01:00.815Z,281.25
2023-05-14T05:02:00.794Z,275.62
2023-05-14T05:03:00.944Z,275.62
2023-05-14T05:04:00.792Z,275.62
2023-05-14T05:05:00.780Z,275.62
2023-05-14T05:06:00.807Z,275.62
2023-05-14T05:07:00.683Z,270.00
2023-05-14T05:08:00.591Z,275.62
2023-05-14T05:09:02.099Z,281.25
2023-05-14T05:10:00.769Z,286.88
2023-05-14T05:11:00.567Z,292.50
2023-05-14T05:12:00.550Z,315.00
2023-05-14T05:13:00.565Z,315.00
2023-05-14T05:14:00.626Z,315.00
2023-05-14T05:15:01.445Z,331.88
2023-05-14T05:16:00.559Z,315.00
2023-05-14T05:17:00.586Z,281.25
2023-05-14T05:18:00.903Z,270.00
2023-05-14T05:19:00.456Z,281.25
2023-05-14T05:20:01.245Z,281.25
2023-05-14T05:21:00.425Z,281.25
2023-05-14T05:22:00.445Z,275.62
2023-05-14T05:23:00.388Z,270.00
2023-05-14T05:24:00.492Z,275.62
2023-05-14T05:25:00.361Z,275.62
2023-05-14T05:26:00.437Z,275.62
2023-05-14T05:27:00.309Z,264.38
2023-05-14T05:28:00.289Z,264.38
2023-05-14T05:29:00.277Z,275.62
2023-05-14T05:30:00.283Z,286.88
2023-05-14T05:31:00.361Z,292.50
2023-05-14T05:32:00.598Z,298.12
2023-05-14T05:33:00.426Z,326.25
2023-05-14T05:34:00.686Z,354.38
2023-05-14T05:35:00.455Z,365.62
2023-05-14T05:36:00.320Z,360.00
2023-05-14T05:37:00.227Z,376.88
2023-05-14T05:38:01.936Z,376.88
2023-05-14T05:39:00.207Z,354.38
2023-05-14T05:40:00.173Z,376.88
2023-05-14T05:41:00.144Z,399.38
2023-05-14T05:42:00.190Z,365.62
2023-05-14T05:43:00.161Z,450.00
2023-05-14T05:44:00.575Z,483.75
2023-05-14T05:45:00.527Z,495.00
2023-05-14T05:46:00.133Z,495.00
2023-05-14T05:47:00.078Z,500.62
2023-05-14T05:48:00.124Z,461.25
2023-05-14T05:49:00.113Z,489.38
2023-05-14T05:50:00.009Z,511.88
2023-05-14T05:50:59.922Z,517.50
2023-05-14T05:51:59.971Z,517.50
2023-05-14T05:52:59.964Z,517.50
2023-05-14T05:53:59.939Z,511.88
2023-05-14T05:54:59.963Z,517.50
2023-05-14T05:55:59.895Z,517.50
2023-05-14T05:56:59.925Z,534.38
2023-05-14T05:57:59.856Z,607.50
2023-05-14T05:58:59.859Z,669.38
2023-05-14T05:59:59.889Z,618.75
2023-05-14T06:00:59.852Z,511.88
2023-05-14T06:01:59.853Z,461.25
2023-05-14T06:03:00.826Z,461.25
2023-05-14T06:03:59.795Z,455.62
2023-05-14T06:05:00.340Z,455.62
2023-05-14T06:06:00.825Z,450.00
2023-05-14T06:07:00.502Z,455.62
2023-05-14T06:07:59.819Z,455.62
2023-05-14T06:08:59.715Z,410.62
2023-05-14T06:09:59.876Z,455.62
2023-05-14T06:10:59.828Z,455.62
2023-05-14T06:11:59.752Z,461.25
2023-05-14T06:12:59.702Z,461.25
2023-05-14T06:13:59.688Z,461.25
2023-05-14T06:14:59.806Z,461.25
2023-05-14T06:15:59.722Z,461.25
2023-05-14T06:16:59.646Z,466.88
2023-05-14T06:17:59.665Z,466.88
2023-05-14T06:18:59.598Z,466.88
2023-05-14T06:19:59.523Z,466.88
2023-05-14T06:20:59.549Z,472.50
2023-05-14T06:21:59.532Z,472.50
2023-05-14T06:22:59.591Z,478.12
2023-05-14T06:23:59.525Z,478.12
2023-05-14T06:24:59.553Z,478.12
2023-05-14T06:25:59.578Z,483.75
2023-05-14T06:26:59.539Z,483.75
2023-05-14T06:27:59.422Z,483.75
2023-05-14T06:28:59.471Z,483.75
2023-05-14T06:29:59.411Z,483.75
2023-05-14T06:30:59.389Z,483.75
2023-05-14T06:31:59.510Z,483.75
2023-05-14T06:32:59.503Z,489.38
2023-05-14T06:33:59.393Z,489.38
2023-05-14T06:34:59.437Z,495.00
2023-05-14T06:35:59.413Z,495.00
2023-05-14T06:36:59.403Z,495.00
2023-05-14T06:37:59.305Z,500.62
2023-05-14T06:38:59.411Z,500.62
2023-05-14T06:39:59.281Z,506.25
2023-05-14T06:40:59.244Z,511.88
2023-05-14T06:41:59.313Z,511.88
2023-05-14T06:42:59.268Z,517.50
2023-05-14T06:43:59.261Z,523.12
2023-05-14T06:44:59.178Z,534.38
2023-05-14T06:45:59.164Z,545.62
2023-05-14T06:46:59.220Z,556.88
2023-05-14T06:47:59.480Z,573.75
2023-05-14T06:48:59.743Z,618.75
2023-05-14T06:49:59.192Z,753.75
2023-05-14T06:50:59.106Z,1023.75
2023-05-14T06:51:59.098Z,1181.25
2023-05-14T06:52:59.061Z,1203.75
2023-05-14T06:53:59.153Z,1254.38
2023-05-14T06:54:59.097Z,1260.00
2023-05-14T06:55:59.116Z,1293.75
2023-05-14T06:56:59.032Z,1333.12
2023-05-14T06:57:59.024Z,1310.62
2023-05-14T06:58:59.070Z,1276.88
2023-05-14T06:59:59.052Z,1282.50
2023-05-14T07:00:59.021Z,1288.12
2023-05-14T07:01:58.983Z,1299.38
2023-05-14T07:02:59.096Z,1321.88
2023-05-14T07:03:58.979Z,1361.25
2023-05-14T07:04:58.942Z,1395.00
2023-05-14T07:05:59.561Z,1411.88
2023-05-14T07:06:58.888Z,1423.12
2023-05-14T07:07:58.894Z,1451.25
2023-05-14T07:08:58.927Z,1468.12
2023-05-14T07:09:58.863Z,1490.62
2023-05-14T07:10:58.948Z,1518.75
2023-05-14T07:12:02.677Z,1535.62
2023-05-14T07:12:59.865Z,1507.50
2023-05-14T07:13:58.806Z,1518.75
2023-05-14T07:14:58.757Z,1513.12
2023-05-14T07:15:59.554Z,1530.00
2023-05-14T07:16:58.898Z,1552.50
2023-05-14T07:17:58.863Z,1575.00
2023-05-14T07:18:59.547Z,1603.12
2023-05-14T07:19:58.727Z,1653.75
2023-05-14T07:20:58.718Z,1636.88
2023-05-14T07:21:58.767Z,1665.00
2023-05-14T07:22:58.708Z,1648.12
2023-05-14T07:23:58.681Z,1608.75
2023-05-14T07:24:58.685Z,1659.38
2023-05-14T07:25:58.593Z,1698.75
2023-05-14T07:26:58.649Z,1715.62
2023-05-14T07:27:58.627Z,1687.50
2023-05-14T07:28:58.674Z,1693.12
2023-05-14T07:29:58.596Z,1704.38
2023-05-14T07:30:58.617Z,1693.12
2023-05-14T07:31:59.167Z,1749.38
2023-05-14T07:32:58.596Z,1783.12
2023-05-14T07:33:58.533Z,1749.38
2023-05-14T07:34:58.547Z,1839.38
2023-05-14T07:35:58.506Z,1884.38
2023-05-14T07:36:58.486Z,1895.62
2023-05-14T07:37:59.504Z,1912.50
2023-05-14T07:38:58.526Z,1951.88
2023-05-14T07:39:58.504Z,2002.50
2023-05-14T07:40:58.531Z,2058.75
2023-05-14T07:41:58.459Z,2058.75
2023-05-14T07:42:58.445Z,2019.38
2023-05-14T07:43:58.461Z,2025.00
2023-05-14T07:44:58.391Z,2047.50
2023-05-14T07:45:58.442Z,2081.25
2023-05-14T07:46:59.174Z,2064.38
2023-05-14T07:47:58.554Z,2137.50
2023-05-14T07:48:58.295Z,2182.50
2023-05-14T07:49:58.363Z,2176.88
2023-05-14T07:50:58.328Z,2193.75
2023-05-14T07:51:58.403Z,2126.25
2023-05-14T07:52:58.251Z,2205.00
2023-05-14T07:53:58.217Z,2205.00
2023-05-14T07:54:58.232Z,2238.75
2023-05-14T07:55:58.241Z,2244.38
2023-05-14T07:56:58.299Z,2221.88
2023-05-14T07:57:58.330Z,2148.75
2023-05-14T07:58:58.255Z,2154.38
2023-05-14T07:59:58.180Z,2188.12
2023-05-14T08:00:58.182Z,2306.25
2023-05-14T08:01:58.284Z,2345.62
2023-05-14T08:02:58.474Z,2351.25
2023-05-14T08:03:58.213Z,2396.25
2023-05-14T08:04:58.132Z,2266.88
2023-05-14T08:05:58.073Z,2227.50
2023-05-14T08:06:58.964Z,2334.38
2023-05-14T08:07:58.119Z,2356.88
2023-05-14T08:08:58.143Z,2311.88
2023-05-14T08:09:58.020Z,2368.12
2023-05-14T08:10:58.273Z,2491.88
2023-05-14T08:11:58.080Z,2508.75
2023-05-14T08:12:58.093Z,2520.00
2023-05-14T08:13:57.947Z,2430.00
2023-05-14T08:14:57.995Z,2306.25
2023-05-14T08:15:57.977Z,2446.88
2023-05-14T08:16:58.296Z,2458.12
2023-05-14T08:17:57.972Z,2385.00
2023-05-14T08:18:57.959Z,2503.12
2023-05-14T08:19:57.882Z,2565.00
2023-05-14T08:20:57.975Z,2525.62
2023-05-14T08:21:58.003Z,2536.88
2023-05-14T08:22:57.877Z,2655.00
2023-05-14T08:23:57.913Z,2705.62
2023-05-14T08:24:57.851Z,2683.12
2023-05-14T08:25:57.866Z,2626.88
2023-05-14T08:26:57.802Z,2576.25
2023-05-14T08:27:57.778Z,2565.00
2023-05-14T08:28:57.856Z,2604.38
2023-05-14T08:29:57.779Z,2581.88
2023-05-14T08:30:57.812Z,2548.12
2023-05-14T08:31:58.250Z,2559.38
2023-05-14T08:32:57.754Z,2700.00
2023-05-14T08:33:57.742Z,2891.25
2023-05-14T08:34:57.762Z,2835.00
2023-05-14T08:35:57.727Z,2565.00
2023-05-14T08:36:57.718Z,2025.00
2023-05-14T08:37:57.737Z,2728.12
2023-05-14T08:38:57.756Z,2823.75
2023-05-14T08:39:57.611Z,2880.00
2023-05-14T08:40:57.716Z,2745.00
2023-05-14T08:41:57.588Z,2761.88
2023-05-14T08:42:57.605Z,2902.50
2023-05-14T08:43:57.598Z,2913.75
2023-05-14T08:44:57.611Z,2885.62
2023-05-14T08:45:57.773Z,2986.88
2023-05-14T08:46:57.568Z,3037.50
2023-05-14T08:47:57.698Z,3020.62
2023-05-14T08:48:57.605Z,2621.25
2023-05-14T08:49:57.505Z,3206.25
2023-05-14T08:50:57.496Z,3133.12
2023-05-14T08:51:57.536Z,2975.62
2023-05-14T08:52:57.500Z,2784.38
2023-05-14T08:53:57.514Z,2857.50
2023-05-14T08:54:57.441Z,3026.25
2023-05-14T08:55:57.429Z,3048.75
2023-05-14T08:56:57.414Z,2919.38
2023-05-14T08:57:57.538Z,2908.12
2023-05-14T08:58:57.366Z,2925.00
2023-05-14T08:59:57.445Z,2863.12
2023-05-14T09:00:57.422Z,2818.12
2023-05-14T09:01:57.380Z,3009.38
2023-05-14T09:02:57.401Z,3003.75
2023-05-14T09:03:57.345Z,2992.50
2023-05-14T09:04:57.376Z,2975.62
2023-05-14T09:05:59.366Z,2874.38
2023-05-14T09:06:57.257Z,2705.62
2023-05-14T09:07:57.357Z,2677.50
2023-05-14T09:08:57.246Z,2818.12
2023-05-14T09:09:57.553Z,3031.88
2023-05-14T09:10:57.219Z,3251.25
2023-05-14T09:11:57.304Z,3245.62
2023-05-14T09:12:57.215Z,3060.00
2023-05-14T09:13:57.197Z,3015.00
2023-05-14T09:14:57.270Z,2947.50
2023-05-14T09:15:57.178Z,3234.38
2023-05-14T09:16:57.798Z,3043.12
2023-05-14T09:17:57.179Z,2919.38
2023-05-14T09:18:57.251Z,2998.12
2023-05-14T09:19:57.196Z,3223.12
2023-05-14T09:20:57.121Z,2970.00
2023-05-14T09:21:57.169Z,2728.12
2023-05-14T09:22:57.055Z,3290.62
2023-05-14T09:23:57.045Z,3217.50
2023-05-14T09:24:57.078Z,3026.25
2023-05-14T09:25:57.017Z,3076.88
2023-05-14T09:26:57.091Z,3065.62
2023-05-14T09:27:58.681Z,3144.38
2023-05-14T09:28:56.986Z,3375.00
2023-05-14T09:29:56.968Z,3335.62
2023-05-14T09:30:56.982Z,3324.38
2023-05-14T09:31:57.062Z,3346.88
2023-05-14T09:32:56.940Z,3273.75
2023-05-14T09:33:56.938Z,3105.00
2023-05-14T09:34:56.966Z,3211.88
2023-05-14T09:35:58.394Z,3234.38
2023-05-14T09:36:56.880Z,3211.88
2023-05-14T09:37:56.882Z,3268.12
2023-05-14T09:38:56.891Z,3307.50
2023-05-14T09:39:56.833Z,3414.38
2023-05-14T09:40:56.801Z,3560.62
2023-05-14T09:41:56.804Z,3656.25
2023-05-14T09:42:57.720Z,3588.75
2023-05-14T09:43:56.783Z,3605.62
2023-05-14T09:44:56.770Z,3594.38
2023-05-14T09:45:56.843Z,3431.25
2023-05-14T09:46:56.899Z,3600.00
2023-05-14T09:47:56.793Z,3650.62
2023-05-14T09:48:56.728Z,3487.50
2023-05-14T09:49:56.744Z,3431.25
2023-05-14T09:50:56.679Z,3555.00
2023-05-14T09:51:56.660Z,3706.88
2023-05-14T09:52:56.681Z,3616.88
2023-05-14T09:53:56.698Z,3363.75
2023-05-14T09:54:56.654Z,3043.12
2023-05-14T09:55:56.616Z,2295.00
2023-05-14T09:56:56.620Z,1800.00
2023-05-14T09:57:56.629Z,3054.38
2023-05-14T09:58:56.672Z,3060.00
2023-05-14T09:59:56.633Z,2930.62
2023-05-14T10:00:56.600Z,2086.88
2023-05-14T10:01:56.623Z,2593.12
2023-05-14T10:02:56.681Z,2784.38
2023-05-14T10:03:56.667Z,2902.50
2023-05-14T10:04:56.622Z,3060.00
2023-05-14T10:05:56.511Z,3268.12
2023-05-14T10:06:56.568Z,967.50
2023-05-14T10:07:56.513Z,3425.62
2023-05-14T10:08:56.448Z,3780.00
2023-05-14T10:09:57.679Z,3937.50
2023-05-14T10:10:56.458Z,3819.38
2023-05-14T10:11:56.458Z,3825.00
2023-05-14T10:12:56.430Z,3695.62
2023-05-14T10:13:56.526Z,3836.25
2023-05-14T10:14:56.435Z,939.38
2023-05-14T10:15:56.400Z,3431.25
2023-05-14T10:16:56.437Z,3706.88
2023-05-14T10:17:56.375Z,2626.88
2023-05-14T10:18:57.494Z,3763.12
2023-05-14T10:19:56.352Z,3667.50
2023-05-14T10:20:56.287Z,1096.88
2023-05-14T10:21:56.280Z,1198.12
2023-05-14T10:22:56.410Z,3926.25
2023-05-14T10:23:56.283Z,4246.88
2023-05-14T10:24:56.241Z,3943.12
2023-05-14T10:25:56.288Z,1046.25
2023-05-14T10:26:56.206Z,990.00
2023-05-14T10:27:56.280Z,888.75
2023-05-14T10:28:56.208Z,894.38
2023-05-14T10:29:56.188Z,781.88
2023-05-14T10:30:56.184Z,770.62
2023-05-14T10:31:56.247Z,736.88
2023-05-14T10:32:56.138Z,680.62
2023-05-14T10:33:57.512Z,641.25
2023-05-14T10:34:56.135Z,646.88
2023-05-14T10:35:56.153Z,663.75
2023-05-14T10:36:56.106Z,675.00
2023-05-14T10:37:56.138Z,680.62
2023-05-14T10:38:56.364Z,725.62
2023-05-14T10:39:56.089Z,798.75
2023-05-14T10:40:56.105Z,849.38
2023-05-14T10:41:56.264Z,877.50
2023-05-14T10:42:56.249Z,888.75
2023-05-14T10:43:57.003Z,877.50
2023-05-14T10:44:56.078Z,888.75
2023-05-14T10:45:56.089Z,849.38
2023-05-14T10:46:58.072Z,843.75
2023-05-14T10:47:56.045Z,860.62
2023-05-14T10:48:55.904Z,871.88
2023-05-14T10:49:55.917Z,860.62
2023-05-14T10:50:56.101Z,826.88
2023-05-14T10:51:56.081Z,838.12
2023-05-14T10:52:55.916Z,838.12
2023-05-14T10:53:55.927Z,838.12
2023-05-14T10:54:55.868Z,826.88
2023-05-14T10:55:55.894Z,810.00
2023-05-14T10:56:55.999Z,793.12
2023-05-14T10:57:56.022Z,781.88
2023-05-14T10:58:55.850Z,759.38
2023-05-14T10:59:56.064Z,742.50
2023-05-14T11:00:55.754Z,725.62
2023-05-14T11:01:55.875Z,703.12
2023-05-14T11:02:55.940Z,669.38
2023-05-14T11:03:56.284Z,646.88
2023-05-14T11:04:55.701Z,624.38
2023-05-14T11:05:55.893Z,596.25
2023-05-14T11:06:55.757Z,562.50
2023-05-14T11:07:56.014Z,545.62
2023-05-14T11:08:55.697Z,573.75
2023-05-14T11:09:55.762Z,641.25
2023-05-14T11:10:55.640Z,708.75
2023-05-14T11:11:56.289Z,793.12
2023-05-14T11:12:56.725Z,843.75
2023-05-14T11:13:56.555Z,911.25
2023-05-14T11:14:55.567Z,973.12
2023-05-14T11:15:55.814Z,1051.88
2023-05-14T11:16:55.633Z,1141.88
2023-05-14T11:17:55.849Z,1243.12
2023-05-14T11:18:55.556Z,1378.12
2023-05-14T11:19:55.690Z,2559.38
2023-05-14T11:20:55.601Z,3195.00
2023-05-14T11:21:55.529Z,3948.75
2023-05-14T11:22:55.508Z,3825.00
2023-05-14T11:23:55.808Z,3701.25
2023-05-14T11:24:55.478Z,1501.88
2023-05-14T11:25:55.589Z,1276.88
2023-05-14T11:26:55.618Z,1203.75
2023-05-14T11:27:56.291Z,1164.38
2023-05-14T11:28:55.460Z,1203.75
2023-05-14T11:29:56.189Z,1276.88
2023-05-14T11:30:55.406Z,1400.62
2023-05-14T11:31:55.377Z,1845.00
2023-05-14T11:32:55.561Z,1963.12
2023-05-14T11:33:55.396Z,1788.75
2023-05-14T11:34:55.355Z,2733.75
2023-05-14T11:35:55.326Z,3825.00
2023-05-14T11:36:55.301Z,4140.00
2023-05-14T11:37:55.330Z,4100.62
2023-05-14T11:38:55.360Z,2975.62
2023-05-14T11:39:55.302Z,2705.62
2023-05-14T11:40:55.430Z,2598.75
2023-05-14T11:41:55.224Z,3369.38
2023-05-14T11:42:55.222Z,3065.62
2023-05-14T11:43:55.371Z,1530.00
2023-05-14T11:44:55.336Z,1310.62
2023-05-14T11:45:55.203Z,1209.38
2023-05-14T11:46:55.228Z,1108.12
2023-05-14T11:47:56.059Z,1023.75
2023-05-14T11:48:55.196Z,956.25
2023-05-14T11:49:55.107Z,922.50
2023-05-14T11:50:55.130Z,967.50
2023-05-14T11:51:55.137Z,1001.25
2023-05-14T11:52:55.225Z,1091.25
2023-05-14T11:53:55.109Z,1175.62
2023-05-14T11:54:55.031Z,1338.75
2023-05-14T11:55:55.086Z,1906.88
2023-05-14T11:56:55.008Z,1732.50
2023-05-14T11:57:55.337Z,1411.88
2023-05-14T11:58:55.174Z,1434.38
2023-05-14T11:59:54.967Z,1496.25
2023-05-14T12:00:55.096Z,1558.12
2023-05-14T12:01:54.930Z,1704.38
2023-05-14T12:02:55.010Z,2379.38
2023-05-14T12:03:55.154Z,2278.12
2023-05-14T12:04:54.916Z,2643.75
2023-05-14T12:05:54.993Z,2430.00
2023-05-14T12:06:54.882Z,3510.00
2023-05-14T12:07:54.846Z,3819.38
2023-05-14T12:08:54.889Z,2806.88
2023-05-14T12:09:54.838Z,2193.75
2023-05-14T12:10:55.053Z,1996.88
2023-05-14T12:11:54.762Z,1946.25
2023-05-14T12:12:55.337Z,1845.00
2023-05-14T12:13:54.831Z,1845.00
2023-05-14T12:14:54.742Z,1873.12
2023-05-14T12:15:54.774Z,1878.75
2023-05-14T12:16:54.702Z,1833.75
2023-05-14T12:17:54.809Z,1805.62
2023-05-14T12:18:54.738Z,1777.50
2023-05-14T12:19:54.690Z,1777.50
2023-05-14T12:20:54.738Z,1794.38
2023-05-14T12:21:54.679Z,1850.62
2023-05-14T12:22:54.681Z,2047.50
2023-05-14T12:23:54.657Z,2030.62
2023-05-14T12:24:54.719Z,2205.00
2023-05-14T12:25:54.758Z,2008.12
2023-05-14T12:26:54.722Z,1890.00
2023-05-14T12:27:54.834Z,1771.88
2023-05-14T12:28:54.574Z,1726.88
2023-05-14T12:29:54.540Z,1698.75
2023-05-14T12:30:54.556Z,1653.75
2023-05-14T12:31:54.588Z,1620.00
2023-05-14T12:32:54.695Z,1597.50